createdAt,value
2019-04-03T00:02:02.690Z,18.97
2019-04-03T00:04:34.071Z,18.60
2019-04-03T00:07:00.111Z,18.70
2019-04-03T00:09:26.823Z,21.30
2019-04-03T00:11:53.675Z,16.73
2019-04-03T00:14:20.447Z,17.03
2019-04-03T00:16:47.249Z,20.00
2019-04-03T00:19:14.085Z,20.37
2019-04-03T00:21:40.751Z,17.67
2019-04-03T00:24:07.506Z,17.33
2019-04-03T00:26:34.225Z,20.20
2019-04-03T00:29:01.079Z,20.67
2019-04-03T00:31:28.106Z,18.47
2019-04-03T00:33:55.145Z,18.17
2019-04-03T00:36:23.410Z,18.83
2019-04-03T00:38:50.425Z,17.23
2019-04-03T00:41:17.051Z,17.77
2019-04-03T00:43:43.820Z,17.93
2019-04-03T00:46:10.541Z,20.40
2019-04-03T00:48:37.262Z,21.40
2019-04-03T00:51:04.077Z,18.03
2019-04-03T00:53:31.086Z,20.67
2019-04-03T00:55:57.974Z,20.07
2019-04-03T00:58:44.448Z,19.07
2019-04-03T01:01:11.434Z,18.63
2019-04-03T01:03:38.359Z,22.00
2019-04-03T01:06:05.301Z,18.27
2019-04-03T01:08:32.016Z,18.73
2019-04-03T01:11:00.402Z,19.27
2019-04-03T01:13:27.903Z,20.63
2019-04-03T01:15:54.730Z,19.57
2019-04-03T01:18:21.459Z,18.87
2019-04-03T01:20:48.708Z,16.93
2019-04-03T01:23:15.454Z,19.13
2019-04-03T01:25:42.191Z,17.73
2019-04-03T01:28:09.780Z,18.07
2019-04-03T01:30:37.535Z,16.53
2019-04-03T01:33:04.256Z,20.93
2019-04-03T01:35:31.017Z,16.83
2019-04-03T01:37:57.736Z,17.50
2019-04-03T01:40:24.798Z,19.40
2019-04-03T01:42:52.800Z,19.00
2019-04-03T01:45:20.348Z,17.50
2019-04-03T01:47:46.974Z,19.40
2019-04-03T01:50:13.853Z,17.97
2019-04-03T01:52:40.561Z,18.90
2019-04-03T01:55:07.524Z,19.43
2019-04-03T01:57:36.247Z,20.17
2019-04-03T02:00:03.583Z,22.23
2019-04-03T02:02:30.195Z,19.40
2019-04-03T02:04:56.978Z,19.33
2019-04-03T02:07:24.045Z,20.60
2019-04-03T02:09:50.969Z,19.03
2019-04-03T02:12:19.675Z,19.20
2019-04-03T02:14:46.501Z,17.20
2019-04-03T02:17:13.189Z,18.90
2019-04-03T02:19:40.084Z,16.97
2019-04-03T02:22:06.918Z,21.30
2019-04-03T02:24:33.655Z,16.70
2019-04-03T02:27:00.935Z,17.90
2019-04-03T02:29:29.341Z,18.47
2019-04-03T02:31:56.040Z,18.37
2019-04-03T02:34:23.442Z,22.00
2019-04-03T02:36:50.173Z,20.30
2019-04-03T02:39:17.380Z,24.93
2019-04-03T02:41:44.169Z,19.33
2019-04-03T02:44:30.410Z,19.50
2019-04-03T02:46:59.440Z,23.30
2019-04-03T02:49:25.897Z,19.73
2019-04-03T02:51:53.784Z,16.37
2019-04-03T02:55:08.100Z,20.20
2019-04-03T02:57:35.640Z,17.63
2019-04-03T03:00:02.690Z,17.97
2019-04-03T03:02:31.172Z,18.73
2019-04-03T03:04:57.916Z,19.40
2019-04-03T03:07:24.624Z,22.33
2019-04-03T03:10:33.017Z,19.43
2019-04-03T03:13:41.119Z,19.23
2019-04-03T03:16:08.552Z,17.50
2019-04-03T03:18:59.964Z,21.60
2019-04-03T03:22:06.808Z,17.97
2019-04-03T03:24:55.258Z,20.07
2019-04-03T03:27:22.283Z,19.50
2019-04-03T03:29:49.076Z,16.50
2019-04-03T03:33:21.834Z,21.13
2019-04-03T03:35:30.655Z,18.50
2019-04-03T03:37:55.311Z,18.83
2019-04-03T03:41:04.644Z,19.40
2019-04-03T03:43:31.458Z,22.33
2019-04-03T03:45:58.360Z,17.83
2019-04-03T03:49:06.268Z,22.23
2019-04-03T03:51:32.976Z,19.23
2019-04-03T03:53:59.825Z,18.53
2019-04-03T03:56:30.877Z,18.67
2019-04-03T03:59:36.445Z,17.83
2019-04-03T04:02:05.718Z,16.33
2019-04-03T04:04:32.829Z,18.87
2019-04-03T04:07:02.245Z,22.97
2019-04-03T04:09:28.766Z,19.00
2019-04-03T04:12:39.836Z,22.23
2019-04-03T04:15:46.376Z,20.03
2019-04-03T04:18:57.281Z,19.63
2019-04-03T04:21:23.097Z,25.40
2019-04-03T04:23:50.157Z,19.43
2019-04-03T04:26:58.095Z,21.30
2019-04-03T04:29:25.047Z,18.23
2019-04-03T04:31:52.602Z,20.13
2019-04-03T04:34:32.568Z,23.50
2019-04-03T04:37:02.145Z,19.40
2019-04-03T04:39:29.299Z,22.90
2019-04-03T04:42:07.991Z,21.07
2019-04-03T04:44:34.840Z,20.13
2019-04-03T04:47:01.624Z,22.73
2019-04-03T04:49:28.423Z,22.57
2019-04-03T04:51:56.979Z,20.97
2019-04-03T04:54:24.036Z,24.23
2019-04-03T04:56:50.828Z,20.60
2019-04-03T04:59:17.452Z,23.57
2019-04-03T05:01:44.217Z,21.40
2019-04-03T05:04:11.245Z,20.57
2019-04-03T05:06:38.270Z,25.67
2019-04-03T05:09:26.783Z,22.03
2019-04-03T05:11:53.609Z,21.63
2019-04-03T05:14:20.324Z,20.83
2019-04-03T05:16:47.354Z,23.23
2019-04-03T05:19:18.726Z,25.50
2019-04-03T05:21:43.191Z,23.67
2019-04-03T05:24:12.713Z,20.70
2019-04-03T05:26:38.748Z,23.83
2019-04-03T05:29:06.045Z,22.63
2019-04-03T05:31:33.091Z,21.33
2019-04-03T05:34:00.230Z,22.43
2019-04-03T05:36:27.192Z,20.97
2019-04-03T05:38:54.185Z,23.37
2019-04-03T05:41:21.026Z,24.53
2019-04-03T05:43:47.880Z,24.23
2019-04-03T05:46:14.793Z,23.50
2019-04-03T05:48:41.875Z,23.10
2019-04-03T05:51:08.694Z,24.17
2019-04-03T05:53:37.225Z,26.87
2019-04-03T05:56:04.295Z,26.93
2019-04-03T05:58:31.313Z,21.13
2019-04-03T06:01:05.057Z,25.50
2019-04-03T06:03:46.451Z,25.93
2019-04-03T06:06:14.419Z,22.30
2019-04-03T06:08:42.142Z,23.13
2019-04-03T06:11:09.473Z,25.90
2019-04-03T06:13:37.778Z,22.87
2019-04-03T06:16:04.919Z,21.60
2019-04-03T06:18:32.465Z,23.47
2019-04-03T06:21:00.700Z,24.97
2019-04-03T06:23:27.444Z,23.50
2019-04-03T06:25:54.527Z,25.33
2019-04-03T06:28:21.325Z,24.10
2019-04-03T06:30:48.415Z,22.97
2019-04-03T06:33:16.721Z,22.23
2019-04-03T06:35:45.232Z,25.27
2019-04-03T06:38:25.694Z,25.80
2019-04-03T06:40:52.463Z,30.03
2019-04-03T06:43:19.506Z,27.00
2019-04-03T06:45:46.461Z,24.47
2019-04-03T06:48:13.132Z,27.50
2019-04-03T06:50:39.849Z,28.47
2019-04-03T06:53:06.575Z,23.90
2019-04-03T06:55:35.508Z,24.70
2019-04-03T06:58:01.969Z,26.03
2019-04-03T07:00:28.881Z,26.37
2019-04-03T07:02:55.660Z,23.03
2019-04-03T07:05:22.371Z,27.87
2019-04-03T07:07:49.086Z,26.60
2019-04-03T07:10:24.826Z,22.70
2019-04-03T07:12:44.634Z,23.63
2019-04-03T07:15:11.653Z,21.67
2019-04-03T07:17:39.291Z,23.13
2019-04-03T07:20:14.149Z,23.53
2019-04-03T07:22:36.345Z,25.60
2019-04-03T07:25:03.998Z,25.47
2019-04-03T07:27:31.158Z,22.37
2019-04-03T07:29:58.207Z,24.70
2019-04-03T07:32:26.244Z,20.83
2019-04-03T07:34:54.490Z,23.30
2019-04-03T07:37:21.485Z,26.30
2019-04-03T07:40:01.171Z,26.80
2019-04-03T07:42:27.937Z,24.93
2019-04-03T07:44:54.832Z,24.30
2019-04-03T07:47:21.635Z,24.40
2019-04-03T07:49:48.981Z,23.50
2019-04-03T07:52:16.722Z,22.63
2019-04-03T07:54:44.895Z,20.47
2019-04-03T07:57:11.821Z,25.80
2019-04-03T07:59:38.529Z,22.03
2019-04-03T08:02:24.915Z,23.57
2019-04-03T08:04:51.720Z,20.83
2019-04-03T08:07:18.695Z,23.07
2019-04-03T08:09:46.156Z,21.80
2019-04-03T08:12:12.778Z,22.32
2019-04-03T08:14:41.199Z,21.73
2019-04-03T08:17:09.891Z,24.97
2019-04-03T08:19:36.785Z,20.13
2019-04-03T08:22:05.931Z,21.40
2019-04-03T08:24:33.104Z,20.70
2019-04-03T08:27:00.047Z,22.70
2019-04-03T08:29:26.974Z,21.73
2019-04-03T08:31:54.723Z,20.80
2019-04-03T08:34:21.831Z,22.37
2019-04-03T08:36:48.821Z,20.27
2019-04-03T08:39:16.879Z,22.03
2019-04-03T08:41:57.335Z,19.80
2019-04-03T08:44:24.059Z,22.13
2019-04-03T08:46:50.971Z,21.67
2019-04-03T08:49:18.030Z,24.37
2019-04-03T08:51:44.866Z,20.83
2019-04-03T08:54:12.540Z,23.10
2019-04-03T08:56:39.314Z,22.70
2019-04-03T08:59:07.658Z,19.10
2019-04-03T09:01:37.025Z,20.53
2019-04-03T09:04:03.615Z,18.33
2019-04-03T09:06:30.408Z,20.63
2019-04-03T09:09:17.509Z,20.47
2019-04-03T09:12:06.856Z,21.00
2019-04-03T09:14:33.098Z,23.90
2019-04-03T09:17:02.263Z,19.53
2019-04-03T09:19:28.943Z,22.23
2019-04-03T09:21:55.652Z,27.90
2019-04-03T09:24:22.824Z,20.60
2019-04-03T09:26:50.204Z,20.00
2019-04-03T09:29:16.928Z,24.67
2019-04-03T09:31:44.125Z,23.87
2019-04-03T09:34:11.044Z,18.97
2019-04-03T09:36:37.701Z,18.83
2019-04-03T09:41:55.122Z,18.20
2019-04-03T09:44:24.404Z,19.13
2019-04-03T09:46:50.859Z,20.83
2019-04-03T09:49:17.739Z,18.70
2019-04-03T09:51:44.927Z,18.30
2019-04-03T09:54:11.684Z,21.57
2019-04-03T09:56:54.887Z,17.67
2019-04-03T09:59:08.122Z,20.40
2019-04-03T10:01:36.161Z,20.63
2019-04-03T10:04:03.150Z,17.40
2019-04-03T10:06:31.440Z,18.00
2019-04-03T10:08:59.908Z,18.37
2019-04-03T10:11:28.304Z,17.37
2019-04-03T10:13:57.472Z,22.73
2019-04-03T10:16:24.149Z,19.33
2019-04-03T10:18:51.020Z,18.47
2019-04-03T10:21:19.592Z,18.83
2019-04-03T10:23:46.282Z,19.27
2019-04-03T10:26:13.395Z,20.70
2019-04-03T10:28:42.524Z,17.40
2019-04-03T10:31:09.479Z,17.20
2019-04-03T10:33:40.797Z,16.20
2019-04-03T10:36:12.722Z,18.50
2019-04-03T10:38:41.928Z,17.23
2019-04-03T10:41:10.956Z,19.30
2019-04-03T10:43:37.965Z,17.60
2019-04-03T10:46:04.724Z,18.40
2019-04-03T10:48:31.647Z,16.83
2019-04-03T10:50:58.538Z,15.63
2019-04-03T10:53:25.362Z,20.33
2019-04-03T10:55:52.612Z,18.13
2019-04-03T10:58:19.334Z,15.43
2019-04-03T11:00:45.992Z,17.50
2019-04-03T11:03:13.054Z,18.00
2019-04-03T11:05:39.846Z,19.40
2019-04-03T11:08:06.458Z,18.80
2019-04-03T11:10:33.247Z,17.33
2019-04-03T11:13:00.907Z,15.67
2019-04-03T11:15:28.623Z,17.47
2019-04-03T11:17:55.863Z,17.00
2019-04-03T11:20:22.811Z,16.43
2019-04-03T11:22:49.603Z,16.23
2019-04-03T11:25:16.557Z,17.37
2019-04-03T11:27:45.402Z,17.97
2019-04-03T11:30:53.492Z,18.43
2019-04-03T11:33:20.318Z,15.60
2019-04-03T11:35:47.018Z,17.47
2019-04-03T11:38:22.465Z,16.27
2019-04-03T11:40:42.822Z,23.70
2019-04-03T11:43:11.270Z,19.13
2019-04-03T11:45:37.976Z,24.57
2019-04-03T11:48:04.760Z,15.97
2019-04-03T11:50:32.039Z,16.57
2019-04-03T11:53:02.112Z,15.07
2019-04-03T11:55:29.064Z,16.60
2019-04-03T11:57:56.073Z,15.03
2019-04-03T12:03:01.377Z,15.37
2019-04-03T12:05:28.227Z,15.07
2019-04-03T12:07:56.650Z,16.97
2019-04-03T12:10:25.951Z,18.00
2019-04-03T12:12:52.827Z,16.53
2019-04-03T12:15:21.554Z,16.10
2019-04-03T12:17:48.223Z,14.47
2019-04-03T12:20:16.344Z,16.77
2019-04-03T12:22:44.264Z,16.77
2019-04-03T12:25:53.786Z,15.97
2019-04-03T12:28:20.571Z,16.90
2019-04-03T12:30:47.236Z,18.13
2019-04-03T12:33:13.912Z,15.37
2019-04-03T12:35:42.326Z,17.27
2019-04-03T12:38:09.231Z,17.50
2019-04-03T12:40:36.075Z,16.47
2019-04-03T12:43:03.290Z,17.70
2019-04-03T12:45:30.344Z,14.93
2019-04-03T12:47:57.138Z,15.77
2019-04-03T12:50:26.534Z,18.13
2019-04-03T12:52:52.724Z,17.47
2019-04-03T12:55:21.092Z,16.97
2019-04-03T12:57:47.708Z,18.13
2019-04-03T13:00:55.520Z,17.00
2019-04-03T13:03:24.204Z,16.67
2019-04-03T13:05:51.738Z,17.73
2019-04-03T13:08:21.668Z,17.50
2019-04-03T13:10:49.730Z,20.93
2019-04-03T13:13:16.443Z,18.57
2019-04-03T13:15:43.111Z,20.67
2019-04-03T13:18:09.973Z,19.77
2019-04-03T13:20:37.698Z,20.67
2019-04-03T13:23:05.834Z,18.67
2019-04-03T13:25:32.974Z,16.90
2019-04-03T13:27:59.611Z,21.43
2019-04-03T13:30:26.752Z,19.80
2019-04-03T13:32:59.680Z,19.37
2019-04-03T13:35:24.294Z,20.60
2019-04-03T13:37:51.056Z,20.17
2019-04-03T13:40:17.902Z,19.17
2019-04-03T13:42:47.568Z,17.60
2019-04-03T13:45:13.686Z,19.70
2019-04-03T13:47:42.834Z,18.50
2019-04-03T13:50:09.585Z,17.43
2019-04-03T13:52:40.872Z,17.70
2019-04-03T13:55:46.702Z,17.10
2019-04-03T13:58:13.511Z,17.47
2019-04-03T14:00:40.693Z,21.90
2019-04-03T14:03:09.250Z,15.93
2019-04-03T14:05:36.960Z,22.33
2019-04-03T14:08:07.119Z,18.30
2019-04-03T14:10:34.165Z,14.83
2019-04-03T14:13:01.169Z,19.67
2019-04-03T14:15:27.842Z,16.97
2019-04-03T14:17:58.394Z,18.27
2019-04-03T14:20:24.222Z,18.87
2019-04-03T14:22:52.248Z,16.90
2019-04-03T14:25:23.112Z,18.73
2019-04-03T14:27:49.274Z,20.57
2019-04-03T14:30:16.542Z,16.87
2019-04-03T14:32:45.443Z,18.40
2019-04-03T14:35:40.532Z,19.23
2019-04-03T14:37:40.999Z,16.80
2019-04-03T14:40:11.092Z,16.53
2019-04-03T14:42:36.675Z,16.60
2019-04-03T14:45:03.804Z,17.77
2019-04-03T14:47:31.008Z,15.67
2019-04-03T14:49:59.325Z,17.13
2019-04-03T14:52:26.361Z,16.17
2019-04-03T14:54:53.850Z,15.07
2019-04-03T14:57:23.653Z,18.53
2019-04-03T14:59:50.813Z,18.67
2019-04-03T15:02:19.229Z,17.27
2019-04-03T15:04:45.958Z,15.60
2019-04-03T15:07:13.147Z,16.17
2019-04-03T15:09:41.277Z,17.10
2019-04-03T15:12:08.187Z,16.97
2019-04-03T15:14:35.209Z,17.00
2019-04-03T15:17:04.745Z,19.50
2019-04-03T15:19:31.218Z,16.23
2019-04-03T15:22:02.198Z,15.17
2019-04-03T15:24:28.315Z,14.93
2019-04-03T15:26:55.133Z,17.07
2019-04-03T15:29:22.921Z,14.40
2019-04-03T15:31:51.548Z,13.93
2019-04-03T15:34:19.878Z,16.67
2019-04-03T15:36:46.491Z,16.67
2019-04-03T15:39:16.413Z,14.33
2019-04-03T15:41:42.502Z,13.43
2019-04-03T15:44:09.675Z,15.30
2019-04-03T15:46:38.289Z,13.30
2019-04-03T15:49:05.329Z,13.83
2019-04-03T15:51:32.150Z,16.57
2019-04-03T15:54:00.179Z,17.33
2019-04-03T15:56:28.163Z,18.20
2019-04-03T15:58:57.356Z,16.40
2019-04-03T16:01:24.301Z,16.37
2019-04-03T16:03:51.302Z,19.60
2019-04-03T16:06:18.333Z,17.57
2019-04-03T16:08:47.371Z,14.23
2019-04-03T16:11:14.335Z,13.77
2019-04-03T16:13:41.118Z,15.27
2019-04-03T16:16:08.198Z,14.37
2019-04-03T16:18:38.580Z,14.37
2019-04-03T16:21:05.784Z,18.60
2019-04-03T16:23:34.237Z,14.53
2019-04-03T16:26:02.456Z,15.50
2019-04-03T16:28:29.678Z,15.30
2019-04-03T16:30:57.988Z,13.87
2019-04-03T16:33:25.662Z,13.67
2019-04-03T16:35:53.921Z,15.73
2019-04-03T16:38:20.655Z,14.83
2019-04-03T16:40:47.588Z,13.53
2019-04-03T16:43:15.093Z,13.33
2019-04-03T16:45:43.773Z,13.60
2019-04-03T16:48:10.627Z,13.60
2019-04-03T16:50:39.627Z,16.60
2019-04-03T16:53:07.464Z,15.03
2019-04-03T16:55:35.706Z,14.40
2019-04-03T16:58:02.922Z,16.60
2019-04-03T17:00:30.164Z,17.27
2019-04-03T17:02:57.383Z,14.57
2019-04-03T17:05:24.102Z,18.00
2019-04-03T17:07:53.224Z,16.77
2019-04-03T17:10:19.485Z,18.60
2019-04-03T17:12:49.564Z,17.60
2019-04-03T17:15:15.484Z,15.73
2019-04-03T17:17:45.664Z,13.83
2019-04-03T17:20:13.022Z,14.70
2019-04-03T17:22:42.148Z,16.70
2019-04-03T17:25:10.828Z,18.17
2019-04-03T17:27:37.793Z,14.40
2019-04-03T17:30:05.602Z,15.63
2019-04-03T17:32:32.796Z,17.93
2019-04-03T17:35:01.427Z,15.60
2019-04-03T17:37:30.959Z,15.63
2019-04-03T17:39:58.669Z,20.67
2019-04-03T17:42:25.873Z,17.93
2019-04-03T17:44:54.049Z,14.87
2019-04-03T17:47:20.998Z,18.47
2019-04-03T17:49:48.002Z,15.30
2019-04-03T17:52:14.740Z,13.73
2019-04-03T17:54:41.796Z,14.73
2019-04-03T17:57:08.511Z,15.33
2019-04-03T17:59:49.477Z,14.40
2019-04-03T18:02:16.249Z,14.00
2019-04-03T18:04:42.887Z,14.70
2019-04-03T18:07:11.927Z,16.30
2019-04-03T18:09:38.249Z,19.67
2019-04-03T18:12:05.635Z,19.27
2019-04-03T18:14:32.310Z,14.27
2019-04-03T18:17:01.135Z,16.40
2019-04-03T18:19:37.416Z,15.97
2019-04-03T18:21:57.254Z,14.33
2019-04-03T18:24:23.879Z,15.53
2019-04-03T18:26:51.414Z,14.87
2019-04-03T18:29:18.094Z,15.57
2019-04-03T18:31:45.237Z,18.23
2019-04-03T18:34:12.384Z,18.33
2019-04-03T18:36:39.818Z,16.37
2019-04-03T18:39:09.728Z,17.23
2019-04-03T18:41:36.626Z,15.40
2019-04-03T18:44:03.748Z,20.73
2019-04-03T18:46:32.418Z,16.30
2019-04-03T18:49:01.534Z,17.13
2019-04-03T18:51:28.827Z,13.90
2019-04-03T18:53:55.671Z,14.97
2019-04-03T18:56:22.394Z,14.37
2019-04-03T18:58:49.468Z,15.40
2019-04-03T19:01:17.154Z,14.57
2019-04-03T19:03:44.797Z,16.50
2019-04-03T19:06:31.713Z,13.73
2019-04-03T19:09:09.247Z,17.80
2019-04-03T19:11:27.121Z,15.17
2019-04-03T19:13:54.180Z,15.27
2019-04-03T19:16:29.387Z,15.07
2019-04-03T19:18:50.351Z,19.07
2019-04-03T19:21:24.290Z,17.00
2019-04-03T19:23:49.781Z,16.97
2019-04-03T19:26:14.599Z,17.60
2019-04-03T19:28:41.271Z,18.07
2019-04-03T19:31:08.754Z,16.93
2019-04-03T19:33:36.758Z,18.13
2019-04-03T19:36:03.546Z,17.20
2019-04-03T19:38:30.135Z,19.97
2019-04-03T19:40:57.203Z,20.27
2019-04-03T19:43:24.237Z,19.07
2019-04-03T19:45:51.826Z,16.73
2019-04-03T19:48:19.593Z,16.23
2019-04-03T19:50:46.418Z,16.63
2019-04-03T19:53:14.079Z,17.53
2019-04-03T19:55:42.296Z,18.93
2019-04-03T19:58:09.096Z,17.83
2019-04-03T20:00:35.817Z,17.73
2019-04-03T20:03:03.002Z,17.80
2019-04-03T20:05:29.807Z,20.87
2019-04-03T20:07:58.551Z,16.50
2019-04-03T20:10:25.256Z,19.50
2019-04-03T20:12:52.166Z,18.07
2019-04-03T20:15:18.916Z,23.33
2019-04-03T20:17:45.608Z,20.30
2019-04-03T20:20:12.566Z,18.63
2019-04-03T20:22:42.457Z,17.07
2019-04-03T20:25:08.779Z,23.07
2019-04-03T20:27:35.672Z,21.37
2019-04-03T20:30:03.400Z,22.27
2019-04-03T20:32:30.304Z,19.77
2019-04-03T20:34:56.971Z,19.43
2019-04-03T20:37:25.988Z,18.13
2019-04-03T20:39:52.326Z,19.33
2019-04-03T20:42:19.004Z,19.07
2019-04-03T20:44:47.937Z,18.50
2019-04-03T20:47:14.588Z,19.03
2019-04-03T20:49:43.712Z,20.70
2019-04-03T20:52:11.457Z,18.03
2019-04-03T20:54:39.123Z,15.87
2019-04-03T20:57:06.203Z,18.43
2019-04-03T20:59:33.292Z,23.13
2019-04-03T21:02:00.079Z,17.67
2019-04-03T21:04:26.968Z,20.67
2019-04-03T21:06:53.872Z,20.77
2019-04-03T21:09:20.627Z,20.17
2019-04-03T21:11:47.496Z,20.17
2019-04-03T21:14:14.215Z,18.10
2019-04-03T21:16:41.898Z,21.80
2019-04-03T21:19:09.662Z,19.27
2019-04-03T21:21:36.717Z,22.40
2019-04-03T21:24:04.091Z,19.37
2019-04-03T21:26:32.226Z,20.13
2019-04-03T21:28:59.088Z,21.37
2019-04-03T21:31:26.580Z,22.00
2019-04-03T21:33:54.901Z,21.43
2019-04-03T21:36:21.688Z,22.67
2019-04-03T21:38:49.215Z,16.77
2019-04-03T21:41:36.137Z,21.47
2019-04-03T21:44:03.368Z,18.67
2019-04-03T21:46:30.677Z,18.23
2019-04-03T21:48:57.979Z,18.60
2019-04-03T21:51:24.614Z,20.17
2019-04-03T21:53:51.764Z,17.73
2019-04-03T21:56:19.530Z,17.43
2019-04-03T21:58:46.271Z,18.93
2019-04-03T22:01:32.866Z,19.30
2019-04-03T22:04:00.121Z,17.43
2019-04-03T22:06:27.870Z,18.00
2019-04-03T22:08:59.701Z,19.40
2019-04-03T22:11:25.480Z,21.03
2019-04-03T22:13:52.670Z,17.47
2019-04-03T22:16:20.512Z,21.13
2019-04-03T22:18:48.495Z,24.77
2019-04-03T22:21:34.942Z,18.77
2019-04-03T22:24:02.284Z,17.37
2019-04-03T22:26:29.432Z,19.37
2019-04-03T22:28:56.318Z,20.40
2019-04-03T22:31:23.363Z,18.87
2019-04-03T22:33:50.714Z,19.07
2019-04-03T22:36:17.780Z,20.27
2019-04-03T22:38:44.753Z,20.20
2019-04-03T22:41:12.760Z,19.87
2019-04-03T22:43:40.628Z,20.30
2019-04-03T22:46:08.219Z,19.93
2019-04-03T22:48:34.942Z,19.30
2019-04-03T22:51:02.041Z,17.90
2019-04-03T22:53:28.670Z,18.87
2019-04-03T22:55:56.723Z,19.40
2019-04-03T22:58:46.349Z,19.43
2019-04-03T23:01:14.899Z,18.80
2019-04-03T23:03:41.609Z,18.37
2019-04-03T23:06:08.666Z,21.87
2019-04-03T23:08:48.654Z,17.90
2019-04-03T23:11:15.575Z,19.43
2019-04-03T23:13:42.876Z,16.67
2019-04-03T23:16:11.532Z,16.40
2019-04-03T23:18:38.374Z,19.53
2019-04-03T23:21:05.380Z,19.97
2019-04-03T23:23:32.024Z,19.60
2019-04-03T23:26:00.884Z,21.37
2019-04-03T23:28:27.546Z,22.97
2019-04-03T23:30:54.443Z,21.40
2019-04-03T23:33:21.219Z,21.73
2019-04-03T23:35:49.103Z,18.40
2019-04-03T23:38:16.563Z,18.07
2019-04-03T23:40:43.662Z,21.00
2019-04-03T23:43:10.266Z,17.70
2019-04-03T23:45:36.886Z,18.50
2019-04-03T23:48:03.662Z,18.23
2019-04-03T23:50:30.311Z,20.30
2019-04-03T23:52:56.932Z,19.37
2019-04-03T23:55:23.723Z,19.57
2019-04-03T23:57:50.434Z,19.27
